sensor_id;sensor_type;location;lat;lon;timestamp;pressure;altitude;pressure_sealevel;temperature;humidity
70072;BME280;57434;42.794;23.302;2023-05-19T00:00:10;95858.28;;;9.41;nan
70072;BME280;57434;42.794;23.302;2023-05-19T00:01:13;95890.03;;;9.62;nan
70072;BME280;57434;42.794;23.302;2023-05-19T00:02:15;95892.66;;;9.65;nan
70072;BME280;57434;42.794;23.302;2023-05-19T00:03:17;95872.06;;;9.54;nan
70072;BME280;57434;42.794;23.302;2023-05-19T00:04:19;95875.63;;;9.54;nan
70072;BME280;57434;42.794;23.302;2023-05-19T00:05:22;95830.09;;;9.30;nan
70072;BME280;57434;42.794;23.302;2023-05-19T00:06:25;95760.28;;;8.88;nan
70072;BME280;57434;42.794;23.302;2023-05-19T00:07:30;95892.06;;;9.61;nan
70072;BME280;57434;42.794;23.302;2023-05-19T00:08:33;95882.00;;;9.69;nan
70072;BME280;57434;42.794;23.302;2023-05-19T00:09:36;95860.59;;;9.66;nan
70072;BME280;57434;42.794;23.302;2023-05-19T00:10:38;95873.22;;;9.76;nan
70072;BME280;57434;42.794;23.302;2023-05-19T00:11:40;95874.31;;;9.79;nan
70072;BME280;57434;42.794;23.302;2023-05-19T00:12:42;95858.06;;;9.68;nan
70072;BME280;57434;42.794;23.302;2023-05-19T00:13:44;95876.44;;;9.84;nan
70072;BME280;57434;42.794;23.302;2023-05-19T00:14:47;95858.44;;;9.76;nan
70072;BME280;57434;42.794;23.302;2023-05-19T00:15:49;95870.84;;;9.84;nan
70072;BME280;57434;42.794;23.302;2023-05-19T00:16:51;95877.50;;;9.87;nan
70072;BME280;57434;42.794;23.302;2023-05-19T00:17:53;95874.88;;;9.83;nan
70072;BME280;57434;42.794;23.302;2023-05-19T00:19:00;95868.13;;;9.75;nan
70072;BME280;57434;42.794;23.302;2023-05-19T00:20:03;95730.41;;;8.94;nan
70072;BME280;57434;42.794;23.302;2023-05-19T00:21:05;95855.47;;;9.65;nan
70072;BME280;57434;42.794;23.302;2023-05-19T00:22:07;95893.69;;;9.68;nan
70072;BME280;57434;42.794;23.302;2023-05-19T00:23:09;95808.41;;;9.15;nan
70072;BME280;57434;42.794;23.302;2023-05-19T00:24:11;95892.06;;;9.61;nan
70072;BME280;57434;42.794;23.302;2023-05-19T00:25:13;95881.63;;;9.62;nan
70072;BME280;57434;42.794;23.302;2023-05-19T00:26:15;95758.94;;;8.83;nan
70072;BME280;57434;42.794;23.302;2023-05-19T00:27:17;95879.19;;;9.55;nan
70072;BME280;57434;42.794;23.302;2023-05-19T00:28:19;95847.97;;;9.32;nan
70072;BME280;57434;42.794;23.302;2023-05-19T00:29:21;95867.78;;;9.43;nan
70072;BME280;57434;42.794;23.302;2023-05-19T00:30:23;95878.13;;;9.52;nan
70072;BME280;57434;42.794;23.302;2023-05-19T00:31:25;95884.03;;;9.54;nan
70072;BME280;57434;42.794;23.302;2023-05-19T00:32:27;95886.53;;;9.52;nan
70072;BME280;57434;42.794;23.302;2023-05-19T00:33:29;95871.75;;;9.51;nan
70072;BME280;57434;42.794;23.302;2023-05-19T00:34:31;95872.72;;;9.48;nan
70072;BME280;57434;42.794;23.302;2023-05-19T00:35:32;95864.91;;;9.52;nan
70072;BME280;57434;42.794;23.302;2023-05-19T00:36:34;95852.69;;;9.41;nan
70072;BME280;57434;42.794;23.302;2023-05-19T00:37:36;95861.22;;;9.46;nan
70072;BME280;57434;42.794;23.302;2023-05-19T00:38:38;95872.06;;;9.54;nan
70072;BME280;57434;42.794;23.302;2023-05-19T00:39:40;95876.59;;;9.51;nan
70072;BME280;57434;42.794;23.302;2023-05-19T00:40:42;95873.00;;;9.50;nan
70072;BME280;57434;42.794;23.302;2023-05-19T00:41:44;95838.69;;;9.26;nan
70072;BME280;57434;42.794;23.302;2023-05-19T00:42:45;95742.47;;;8.61;nan
70072;BME280;57434;42.794;23.302;2023-05-19T00:43:48;95873.66;;;9.45;nan
70072;BME280;57434;42.794;23.302;2023-05-19T00:44:51;95872.59;;;9.43;nan
70072;BME280;57434;42.794;23.302;2023-05-19T00:45:53;95877.91;;;9.41;nan
70072;BME280;57434;42.794;23.302;2023-05-19T00:46:56;95869.13;;;9.33;nan
70072;BME280;57434;42.794;23.302;2023-05-19T00:47:58;95851.78;;;9.20;nan
70072;BME280;57434;42.794;23.302;2023-05-19T00:49:00;95861.38;;;9.28;nan
70072;BME280;57434;42.794;23.302;2023-05-19T00:50:02;95852.72;;;9.17;nan
70072;BME280;57434;42.794;23.302;2023-05-19T00:51:04;95865.13;;;9.25;nan
70072;BME280;57434;42.794;23.302;2023-05-19T00:52:06;95850.97;;;9.05;nan
70072;BME280;57434;42.794;23.302;2023-05-19T00:53:08;95864.59;;;9.12;nan
70072;BME280;57434;42.794;23.302;2023-05-19T00:54:10;95730.78;;;8.24;nan
70072;BME280;57434;42.794;23.302;2023-05-19T00:55:12;95847.91;;;8.94;nan
70072;BME280;57434;42.794;23.302;2023-05-19T00:56:15;95871.72;;;8.89;nan
70072;BME280;57434;42.794;23.302;2023-05-19T00:57:17;95864.53;;;8.97;nan
70072;BME280;57434;42.794;23.302;2023-05-19T00:58:19;95860.72;;;8.85;nan
70072;BME280;57434;42.794;23.302;2023-05-19T00:59:21;95674.44;;;7.69;nan
70072;BME280;57434;42.794;23.302;2023-05-19T01:00:23;95848.56;;;8.89;nan
70072;BME280;57434;42.794;23.302;2023-05-19T01:01:25;95826.13;;;8.74;nan
70072;BME280;57434;42.794;23.302;2023-05-19T01:02:27;95875.41;;;8.95;nan
70072;BME280;57434;42.794;23.302;2023-05-19T01:03:30;95881.78;;;8.96;nan
70072;BME280;57434;42.794;23.302;2023-05-19T01:04:35;95828.00;;;8.77;nan
70072;BME280;57434;42.794;23.302;2023-05-19T01:07:22;95882.13;;;8.89;nan
70072;BME280;57434;42.794;23.302;2023-05-19T01:08:23;95861.59;;;8.92;nan
70072;BME280;57434;42.794;23.302;2023-05-19T01:09:25;95858.03;;;8.91;nan
70072;BME280;57434;42.794;23.302;2023-05-19T01:10:27;95854.41;;;8.76;nan
70072;BME280;57434;42.794;23.302;2023-05-19T01:11:29;95870.13;;;8.97;nan
70072;BME280;57434;42.794;23.302;2023-05-19T01:12:31;95844.94;;;8.73;nan
70072;BME280;57434;42.794;23.302;2023-05-19T01:13:34;95864.22;;;8.95;nan
70072;BME280;57434;42.794;23.302;2023-05-19T01:14:37;95866.56;;;8.97;nan
70072;BME280;57434;42.794;23.302;2023-05-19T01:16:00;95733.19;;;8.07;nan
70072;BME280;57434;42.794;23.302;2023-05-19T01:17:29;95827.25;;;8.67;nan
70072;BME280;57434;42.794;23.302;2023-05-19T01:18:38;95862.47;;;8.83;nan
70072;BME280;57434;42.794;23.302;2023-05-19T01:21:48;95862.16;;;8.81;nan
70072;BME280;57434;42.794;23.302;2023-05-19T01:30:06;95845.75;;;8.65;nan
70072;BME280;57434;42.794;23.302;2023-05-19T01:31:09;95869.53;;;8.69;nan
70072;BME280;57434;42.794;23.302;2023-05-19T01:32:14;95863.63;;;8.67;nan
70072;BME280;57434;42.794;23.302;2023-05-19T01:33:20;95865.78;;;8.72;nan
70072;BME280;57434;42.794;23.302;2023-05-19T01:34:25;95865.41;;;8.56;nan
70072;BME280;57434;42.794;23.302;2023-05-19T01:35:28;95737.63;;;7.90;nan
70072;BME280;57434;42.794;23.302;2023-05-19T01:36:32;95891.41;;;8.71;nan
70072;BME280;57434;42.794;23.302;2023-05-19T01:37:36;95773.44;;;8.01;nan
70072;BME280;57434;42.794;23.302;2023-05-19T01:38:39;95744.78;;;7.82;nan
70072;BME280;57434;42.794;23.302;2023-05-19T01:39:44;95874.56;;;8.56;nan
70072;BME280;57434;42.794;23.302;2023-05-19T01:40:48;95765.56;;;7.90;nan
70072;BME280;57434;42.794;23.302;2023-05-19T01:41:51;95887.41;;;8.63;nan
70072;BME280;57434;42.794;23.302;2023-05-19T01:42:57;95885.22;;;8.67;nan
70072;BME280;57434;42.794;23.302;2023-05-19T01:43:59;95905.38;;;8.47;nan
70072;BME280;57434;42.794;23.302;2023-05-19T01:45:02;95886.25;;;8.45;nan
70072;BME280;57434;42.794;23.302;2023-05-19T01:46:05;95885.00;;;8.13;nan
70072;BME280;57434;42.794;23.302;2023-05-19T01:47:07;95871.16;;;8.19;nan
70072;BME280;57434;42.794;23.302;2023-05-19T01:48:10;95872.41;;;8.18;nan
70072;BME280;57434;42.794;23.302;2023-05-19T01:49:12;95875.47;;;8.29;nan
70072;BME280;57434;42.794;23.302;2023-05-19T01:50:14;95875.59;;;8.35;nan
70072;BME280;57434;42.794;23.302;2023-05-19T01:51:16;95874.09;;;8.25;nan
70072;BME280;57434;42.794;23.302;2023-05-19T01:52:18;95873.44;;;8.30;nan
70072;BME280;57434;42.794;23.302;2023-05-19T01:53:20;95749.56;;;7.48;nan
70072;BME280;57434;42.794;23.302;2023-05-19T01:54:22;95876.44;;;8.17;nan
70072;BME280;57434;42.794;23.302;2023-05-19T01:55:24;95878.06;;;8.33;nan
70072;BME280;57434;42.794;23.302;2023-05-19T01:58:57;95869.53;;;8.36;nan
70072;BME280;57434;42.794;23.302;2023-05-19T02:00:23;95858.97;;;8.31;nan
70072;BME280;57434;42.794;23.302;2023-05-19T02:01:51;95753.63;;;7.38;nan
70072;BME280;57434;42.794;23.302;2023-05-19T02:07:02;95886.66;;;8.29;nan
70072;BME280;57434;42.794;23.302;2023-05-19T02:08:33;95868.38;;;8.19;nan
70072;BME280;57434;42.794;23.302;2023-05-19T02:09:42;95897.06;;;8.29;nan
70072;BME280;57434;42.794;23.302;2023-05-19T02:10:50;95872.22;;;8.22;nan
70072;BME280;57434;42.794;23.302;2023-05-19T02:13:38;95873.16;;;8.28;nan
70072;BME280;57434;42.794;23.302;2023-05-19T02:16:02;95870.00;;;8.35;nan
70072;BME280;57434;42.794;23.302;2023-05-19T02:17:04;95776.19;;;7.68;nan
70072;BME280;57434;42.794;23.302;2023-05-19T02:18:10;95894.81;;;8.42;nan
70072;BME280;57434;42.794;23.302;2023-05-19T02:19:27;95753.25;;;7.64;nan
70072;BME280;57434;42.794;23.302;2023-05-19T02:20:30;95894.63;;;8.55;nan
70072;BME280;57434;42.794;23.302;2023-05-19T02:21:32;95833.88;;;8.22;nan
70072;BME280;57434;42.794;23.302;2023-05-19T02:22:35;95873.97;;;8.52;nan
70072;BME280;57434;42.794;23.302;2023-05-19T02:23:37;95885.09;;;8.61;nan
70072;BME280;57434;42.794;23.302;2023-05-19T02:24:38;95885.69;;;8.65;nan
70072;BME280;57434;42.794;23.302;2023-05-19T02:25:40;95871.78;;;8.56;nan
70072;BME280;57434;42.794;23.302;2023-05-19T02:26:42;95777.03;;;7.92;nan
70072;BME280;57434;42.794;23.302;2023-05-19T02:27:44;95859.22;;;8.52;nan
70072;BME280;57434;42.794;23.302;2023-05-19T02:28:46;95866.66;;;8.55;nan
70072;BME280;57434;42.794;23.302;2023-05-19T02:29:48;95869.09;;;8.62;nan
70072;BME280;57434;42.794;23.302;2023-05-19T02:30:50;95907.88;;;8.78;nan
70072;BME280;57434;42.794;23.302;2023-05-19T02:31:52;95828.38;;;8.37;nan
70072;BME280;57434;42.794;23.302;2023-05-19T02:32:54;95909.88;;;8.77;nan
70072;BME280;57434;42.794;23.302;2023-05-19T02:33:56;95869.16;;;8.53;nan
70072;BME280;57434;42.794;23.302;2023-05-19T02:34:58;95885.19;;;8.76;nan
70072;BME280;57434;42.794;23.302;2023-05-19T02:35:59;95877.41;;;8.80;nan
70072;BME280;57434;42.794;23.302;2023-05-19T02:37:01;95901.50;;;8.77;nan
70072;BME280;57434;42.794;23.302;2023-05-19T02:38:03;95789.63;;;8.21;nan
70072;BME280;57434;42.794;23.302;2023-05-19T02:39:05;95814.25;;;8.31;nan
70072;BME280;57434;42.794;23.302;2023-05-19T02:40:07;95872.97;;;8.64;nan
70072;BME280;57434;42.794;23.302;2023-05-19T02:41:09;95889.22;;;8.75;nan
70072;BME280;57434;42.794;23.302;2023-05-19T02:42:11;95868.63;;;8.63;nan
70072;BME280;57434;42.794;23.302;2023-05-19T02:43:13;95798.03;;;8.21;nan
70072;BME280;57434;42.794;23.302;2023-05-19T02:44:15;95876.97;;;8.72;nan
70072;BME280;57434;42.794;23.302;2023-05-19T02:45:17;95887.22;;;8.75;nan
70072;BME280;57434;42.794;23.302;2023-05-19T02:46:19;95887.88;;;8.61;nan
70072;BME280;57434;42.794;23.302;2023-05-19T02:47:21;95883.38;;;8.64;nan
70072;BME280;57434;42.794;23.302;2023-05-19T02:48:23;95862.97;;;8.48;nan
70072;BME280;57434;42.794;23.302;2023-05-19T02:49:26;95901.75;;;8.56;nan
70072;BME280;57434;42.794;23.302;2023-05-19T02:50:28;95918.88;;;8.48;nan
70072;BME280;57434;42.794;23.302;2023-05-19T02:51:30;95791.97;;;7.80;nan
70072;BME280;57434;42.794;23.302;2023-05-19T02:52:32;95909.53;;;8.52;nan
70072;BME280;57434;42.794;23.302;2023-05-19T02:53:35;95879.59;;;8.43;nan
70072;BME280;57434;42.794;23.302;2023-05-19T02:54:37;95890.31;;;8.44;nan
70072;BME280;57434;42.794;23.302;2023-05-19T02:55:39;95895.75;;;8.39;nan
70072;BME280;57434;42.794;23.302;2023-05-19T02:56:41;95891.13;;;8.36;nan
70072;BME280;57434;42.794;23.302;2023-05-19T02:57:42;95889.88;;;8.37;nan
70072;BME280;57434;42.794;23.302;2023-05-19T02:58:44;95781.94;;;7.64;nan
70072;BME280;57434;42.794;23.302;2023-05-19T02:59:46;95892.66;;;8.37;nan
70072;BME280;57434;42.794;23.302;2023-05-19T03:00:48;95772.97;;;7.60;nan
70072;BME280;57434;42.794;23.302;2023-05-19T03:01:59;95886.13;;;8.40;nan
70072;BME280;57434;42.794;23.302;2023-05-19T03:03:01;95897.34;;;8.31;nan
70072;BME280;57434;42.794;23.302;2023-05-19T03:04:03;95767.69;;;7.53;nan
70072;BME280;57434;42.794;23.302;2023-05-19T03:05:05;95888.22;;;8.21;nan
70072;BME280;57434;42.794;23.302;2023-05-19T03:06:07;95902.00;;;8.34;nan
70072;BME280;57434;42.794;23.302;2023-05-19T03:07:09;95871.00;;;8.13;nan
70072;BME280;57434;42.794;23.302;2023-05-19T03:08:11;95922.03;;;8.32;nan
70072;BME280;57434;42.794;23.302;2023-05-19T03:09:13;95910.72;;;8.27;nan
70072;BME280;57434;42.794;23.302;2023-05-19T03:10:15;95786.47;;;7.53;nan
70072;BME280;57434;42.794;23.302;2023-05-19T03:11:17;95907.31;;;8.23;nan
70072;BME280;57434;42.794;23.302;2023-05-19T03:12:19;95905.16;;;8.18;nan
70072;BME280;57434;42.794;23.302;2023-05-19T03:13:21;95911.84;;;8.20;nan
70072;BME280;57434;42.794;23.302;2023-05-19T03:14:23;95809.41;;;7.57;nan
70072;BME280;57434;42.794;23.302;2023-05-19T03:15:24;95905.78;;;8.22;nan
70072;BME280;57434;42.794;23.302;2023-05-19T03:16:26;95898.78;;;8.17;nan
70072;BME280;57434;42.794;23.302;2023-05-19T03:17:28;95891.06;;;8.03;nan
70072;BME280;57434;42.794;23.302;2023-05-19T03:18:30;95913.25;;;8.15;nan
70072;BME280;57434;42.794;23.302;2023-05-19T03:19:32;95909.19;;;8.16;nan
70072;BME280;57434;42.794;23.302;2023-05-19T03:20:34;95911.19;;;8.25;nan
70072;BME280;57434;42.794;23.302;2023-05-19T03:21:36;95889.03;;;8.12;nan
70072;BME280;57434;42.794;23.302;2023-05-19T03:22:38;95865.19;;;7.93;nan
70072;BME280;57434;42.794;23.302;2023-05-19T03:23:40;95923.84;;;8.02;nan
70072;BME280;57434;42.794;23.302;2023-05-19T03:24:42;95914.00;;;8.16;nan
70072;BME280;57434;42.794;23.302;2023-05-19T03:25:44;95907.97;;;8.08;nan
70072;BME280;57434;42.794;23.302;2023-05-19T03:26:46;95903.94;;;8.09;nan
70072;BME280;57434;42.794;23.302;2023-05-19T03:27:47;95780.00;;;7.37;nan
70072;BME280;57434;42.794;23.302;2023-05-19T03:28:49;95909.66;;;8.24;nan
70072;BME280;57434;42.794;23.302;2023-05-19T03:29:51;95905.44;;;8.29;nan
70072;BME280;57434;42.794;23.302;2023-05-19T03:30:53;95872.88;;;8.07;nan
70072;BME280;57434;42.794;23.302;2023-05-19T03:31:55;95862.84;;;8.01;nan
70072;BME280;57434;42.794;23.302;2023-05-19T03:32:57;95908.75;;;8.09;nan
70072;BME280;57434;42.794;23.302;2023-05-19T03:33:59;95913.09;;;8.10;nan
70072;BME280;57434;42.794;23.302;2023-05-19T03:35:01;95919.13;;;8.18;nan
70072;BME280;57434;42.794;23.302;2023-05-19T03:36:03;95898.94;;;8.23;nan
70072;BME280;57434;42.794;23.302;2023-05-19T03:37:05;95903.44;;;8.20;nan
70072;BME280;57434;42.794;23.302;2023-05-19T03:38:07;95730.88;;;7.12;nan
70072;BME280;57434;42.794;23.302;2023-05-19T03:39:09;95900.81;;;8.16;nan
70072;BME280;57434;42.794;23.302;2023-05-19T03:40:11;95934.66;;;8.28;nan
70072;BME280;57434;42.794;23.302;2023-05-19T03:41:13;95910.06;;;8.32;nan
70072;BME280;57434;42.794;23.302;2023-05-19T03:42:15;95874.44;;;8.08;nan
70072;BME280;57434;42.794;23.302;2023-05-19T03:43:17;95913.91;;;8.43;nan
70072;BME280;57434;42.794;23.302;2023-05-19T03:44:19;95916.09;;;8.48;nan
70072;BME280;57434;42.794;23.302;2023-05-19T03:45:20;95906.22;;;8.29;nan
70072;BME280;57434;42.794;23.302;2023-05-19T03:46:22;95912.84;;;8.41;nan
70072;BME280;57434;42.794;23.302;2023-05-19T03:47:24;95921.53;;;8.43;nan
70072;BME280;57434;42.794;23.302;2023-05-19T03:48:26;95914.56;;;8.38;nan
70072;BME280;57434;42.794;23.302;2023-05-19T03:49:28;95912.97;;;8.46;nan
70072;BME280;57434;42.794;23.302;2023-05-19T03:50:30;95884.91;;;8.32;nan
70072;BME280;57434;42.794;23.302;2023-05-19T03:51:32;95909.13;;;8.35;nan
70072;BME280;57434;42.794;23.302;2023-05-19T03:52:34;95919.00;;;8.54;nan
70072;BME280;57434;42.794;23.302;2023-05-19T03:53:36;95808.25;;;7.81;nan
70072;BME280;57434;42.794;23.302;2023-05-19T03:54:38;95780.53;;;7.69;nan
70072;BME280;57434;42.794;23.302;2023-05-19T03:55:40;95915.44;;;8.54;nan
70072;BME280;57434;42.794;23.302;2023-05-19T03:56:42;95929.53;;;8.59;nan
70072;BME280;57434;42.794;23.302;2023-05-19T03:57:44;95906.28;;;8.53;nan
70072;BME280;57434;42.794;23.302;2023-05-19T03:58:46;95916.38;;;8.50;nan
70072;BME280;57434;42.794;23.302;2023-05-19T03:59:48;95921.34;;;8.56;nan
70072;BME280;57434;42.794;23.302;2023-05-19T04:00:50;95920.88;;;8.57;nan
70072;BME280;57434;42.794;23.302;2023-05-19T04:01:52;95920.03;;;8.66;nan
70072;BME280;57434;42.794;23.302;2023-05-19T04:02:54;95919.13;;;8.60;nan
70072;BME280;57434;42.794;23.302;2023-05-19T04:03:56;95910.72;;;8.60;nan
70072;BME280;57434;42.794;23.302;2023-05-19T04:04:57;95809.31;;;7.93;nan
70072;BME280;57434;42.794;23.302;2023-05-19T04:05:59;95918.00;;;8.66;nan
70072;BME280;57434;42.794;23.302;2023-05-19T04:07:01;95925.91;;;8.77;nan
70072;BME280;57434;42.794;23.302;2023-05-19T04:08:04;95932.19;;;8.87;nan
70072;BME280;57434;42.794;23.302;2023-05-19T04:09:13;95927.03;;;8.94;nan
70072;BME280;57434;42.794;23.302;2023-05-19T04:10:15;95952.38;;;8.91;nan
70072;BME280;57434;42.794;23.302;2023-05-19T04:11:17;95942.09;;;8.97;nan
70072;BME280;57434;42.794;23.302;2023-05-19T04:12:19;95934.63;;;9.03;nan
70072;BME280;57434;42.794;23.302;2023-05-19T04:13:20;95871.72;;;8.65;nan
70072;BME280;57434;42.794;23.302;2023-05-19T04:14:22;95927.63;;;8.98;nan
70072;BME280;57434;42.794;23.302;2023-05-19T04:15:24;95935.25;;;8.98;nan
70072;BME280;57434;42.794;23.302;2023-05-19T04:16:26;95942.38;;;9.08;nan
70072;BME280;57434;42.794;23.302;2023-05-19T04:17:28;95947.28;;;9.13;nan
70072;BME280;57434;42.794;23.302;2023-05-19T04:18:30;95897.03;;;8.71;nan
70072;BME280;57434;42.794;23.302;2023-05-19T04:19:32;95955.28;;;9.05;nan
70072;BME280;57434;42.794;23.302;2023-05-19T04:20:34;95938.56;;;9.20;nan
70072;BME280;57434;42.794;23.302;2023-05-19T04:21:36;95832.25;;;8.63;nan
70072;BME280;57434;42.794;23.302;2023-05-19T04:22:38;95943.81;;;9.27;nan
70072;BME280;57434;42.794;23.302;2023-05-19T04:23:39;95941.25;;;9.38;nan
70072;BME280;57434;42.794;23.302;2023-05-19T04:24:41;95939.41;;;9.35;nan
70072;BME280;57434;42.794;23.302;2023-05-19T04:25:43;95922.03;;;9.31;nan
70072;BME280;57434;42.794;23.302;2023-05-19T04:26:45;95930.44;;;9.46;nan
70072;BME280;57434;42.794;23.302;2023-05-19T04:27:47;95948.31;;;9.48;nan
70072;BME280;57434;42.794;23.302;2023-05-19T04:28:49;95932.31;;;9.49;nan
70072;BME280;57434;42.794;23.302;2023-05-19T04:29:51;95931.59;;;9.63;nan
70072;BME280;57434;42.794;23.302;2023-05-19T04:30:53;95906.13;;;9.52;nan
70072;BME280;57434;42.794;23.302;2023-05-19T04:31:55;95805.66;;;8.92;nan
70072;BME280;57434;42.794;23.302;2023-05-19T04:32:56;95929.06;;;9.65;nan
70072;BME280;57434;42.794;23.302;2023-05-19T04:33:58;95923.34;;;9.60;nan
70072;BME280;57434;42.794;23.302;2023-05-19T04:35:00;95809.22;;;8.92;nan
70072;BME280;57434;42.794;23.302;2023-05-19T04:36:02;95914.78;;;9.63;nan
70072;BME280;57434;42.794;23.302;2023-05-19T04:37:05;95945.38;;;9.67;nan
70072;BME280;57434;42.794;23.302;2023-05-19T04:38:08;95921.53;;;9.71;nan
70072;BME280;57434;42.794;23.302;2023-05-19T04:39:10;95923.56;;;9.71;nan
70072;BME280;57434;42.794;23.302;2023-05-19T04:40:12;95929.56;;;9.78;nan
70072;BME280;57434;42.794;23.302;2023-05-19T04:41:14;95801.53;;;9.02;nan
70072;BME280;57434;42.794;23.302;2023-05-19T04:42:15;95934.31;;;9.87;nan
70072;BME280;57434;42.794;23.302;2023-05-19T04:43:18;95927.66;;;9.99;nan
70072;BME280;57434;42.794;23.302;2023-05-19T04:44:20;95926.69;;;10.02;nan
70072;BME280;57434;42.794;23.302;2023-05-19T04:45:22;95907.38;;;9.90;nan
70072;BME280;57434;42.794;23.302;2023-05-19T04:46:25;95864.81;;;9.62;nan
70072;BME280;57434;42.794;23.302;2023-05-19T04:47:27;95919.16;;;9.94;nan
70072;BME280;57434;42.794;23.302;2023-05-19T04:48:30;95927.34;;;9.97;nan
70072;BME280;57434;42.794;23.302;2023-05-19T04:49:32;95914.63;;;10.11;nan
70072;BME280;57434;42.794;23.302;2023-05-19T04:50:33;95914.91;;;10.13;nan
70072;BME280;57434;42.794;23.302;2023-05-19T04:51:35;95953.88;;;10.26;nan
70072;BME280;57434;42.794;23.302;2023-05-19T04:52:37;95906.69;;;10.09;nan
70072;BME280;57434;42.794;23.302;2023-05-19T04:53:40;95926.41;;;10.44;nan
70072;BME280;57434;42.794;23.302;2023-05-19T04:54:42;95926.91;;;10.43;nan
70072;BME280;57434;42.794;23.302;2023-05-19T04:55:44;95908.53;;;10.42;nan
70072;BME280;57434;42.794;23.302;2023-05-19T04:56:45;95937.41;;;10.63;nan
70072;BME280;57434;42.794;23.302;2023-05-19T04:57:47;95920.47;;;10.57;nan
70072;BME280;57434;42.794;23.302;2023-05-19T04:58:49;95931.81;;;10.63;nan
70072;BME280;57434;42.794;23.302;2023-05-19T04:59:52;95933.16;;;10.67;nan
70072;BME280;57434;42.794;23.302;2023-05-19T05:00:54;95813.63;;;9.91;nan
70072;BME280;57434;42.794;23.302;2023-05-19T05:01:56;95841.84;;;10.16;nan
70072;BME280;57434;42.794;23.302;2023-05-19T05:02:57;95943.13;;;10.68;nan
70072;BME280;57434;42.794;23.302;2023-05-19T05:03:59;95829.34;;;10.03;nan
70072;BME280;57434;42.794;23.302;2023-05-19T05:05:01;95926.38;;;10.59;nan
70072;BME280;57434;42.794;23.302;2023-05-19T05:06:03;95939.16;;;10.60;nan
70072;BME280;57434;42.794;23.302;2023-05-19T05:07:05;95942.06;;;10.66;nan
70072;BME280;57434;42.794;23.302;2023-05-19T05:08:09;95937.41;;;10.63;nan
70072;BME280;57434;42.794;23.302;2023-05-19T05:09:11;95889.09;;;10.38;nan
70072;BME280;57434;42.794;23.302;2023-05-19T05:10:13;95942.53;;;10.79;nan
70072;BME280;57434;42.794;23.302;2023-05-19T05:11:15;95959.16;;;10.82;nan
70072;BME280;57434;42.794;23.302;2023-05-19T05:12:17;95938.66;;;10.76;nan
70072;BME280;57434;42.794;23.302;2023-05-19T05:13:23;95932.53;;;10.93;nan
70072;BME280;57434;42.794;23.302;2023-05-19T05:14:25;95939.22;;;10.95;nan
70072;BME280;57434;42.794;23.302;2023-05-19T05:15:27;95955.00;;;10.93;nan
70072;BME280;57434;42.794;23.302;2023-05-19T05:16:30;95815.16;;;10.21;nan
70072;BME280;57434;42.794;23.302;2023-05-19T05:17:33;95945.72;;;10.86;nan
70072;BME280;57434;42.794;23.302;2023-05-19T05:18:35;95916.75;;;10.95;nan
70072;BME280;57434;42.794;23.302;2023-05-19T05:19:38;95814.81;;;10.34;nan
70072;BME280;57434;42.794;23.302;2023-05-19T05:20:43;95823.50;;;10.36;nan
70072;BME280;57434;42.794;23.302;2023-05-19T05:21:46;95917.63;;;11.01;nan
70072;BME280;57434;42.794;23.302;2023-05-19T05:22:48;95938.47;;;11.15;nan
70072;BME280;57434;42.794;23.302;2023-05-19T05:23:51;95824.94;;;10.46;nan
70072;BME280;57434;42.794;23.302;2023-05-19T05:24:53;95944.75;;;11.25;nan
70072;BME280;57434;42.794;23.302;2023-05-19T05:25:55;95944.81;;;11.30;nan
70072;BME280;57434;42.794;23.302;2023-05-19T05:26:58;95828.31;;;10.50;nan
70072;BME280;57434;42.794;23.302;2023-05-19T05:27:59;95826.56;;;10.52;nan
70072;BME280;57434;42.794;23.302;2023-05-19T05:29:02;95938.97;;;11.34;nan
70072;BME280;57434;42.794;23.302;2023-05-19T05:30:05;95934.22;;;11.40;nan
70072;BME280;57434;42.794;23.302;2023-05-19T05:31:07;95938.16;;;11.48;nan
70072;BME280;57434;42.794;23.302;2023-05-19T05:32:09;95927.13;;;11.44;nan
70072;BME280;57434;42.794;23.302;2023-05-19T05:33:11;95929.84;;;11.39;nan
70072;BME280;57434;42.794;23.302;2023-05-19T05:34:13;95911.16;;;11.36;nan
70072;BME280;57434;42.794;23.302;2023-05-19T05:35:15;95953.66;;;11.64;nan
70072;BME280;57434;42.794;23.302;2023-05-19T05:36:17;95940.88;;;11.63;nan
70072;BME280;57434;42.794;23.302;2023-05-19T05:37:19;95933.44;;;11.60;nan
70072;BME280;57434;42.794;23.302;2023-05-19T05:38:20;95961.75;;;11.76;nan
70072;BME280;57434;42.794;23.302;2023-05-19T05:39:22;95960.84;;;11.85;nan
70072;BME280;57434;42.794;23.302;2023-05-19T05:40:24;95864.41;;;11.33;nan
70072;BME280;57434;42.794;23.302;2023-05-19T05:41:27;95934.81;;;11.90;nan
70072;BME280;57434;42.794;23.302;2023-05-19T05:42:29;95810.97;;;11.07;nan
70072;BME280;57434;42.794;23.302;2023-05-19T05:43:31;95942.53;;;11.95;nan
70072;BME280;57434;42.794;23.302;2023-05-19T05:44:33;95943.44;;;11.86;nan
70072;BME280;57434;42.794;23.302;2023-05-19T05:45:35;95929.19;;;11.90;nan
70072;BME280;57434;42.794;23.302;2023-05-19T05:46:37;95920.97;;;11.86;nan
70072;BME280;57434;42.794;23.302;2023-05-19T05:47:39;95942.66;;;12.06;nan
70072;BME280;57434;42.794;23.302;2023-05-19T05:48:41;95947.78;;;12.08;nan
70072;BME280;57434;42.794;23.302;2023-05-19T05:49:43;95936.47;;;12.02;nan
70072;BME280;57434;42.794;23.302;2023-05-19T05:50:47;95944.53;;;12.15;nan
70072;BME280;57434;42.794;23.302;2023-05-19T05:51:49;95941.88;;;12.06;nan
70072;BME280;57434;42.794;23.302;2023-05-19T05:53:06;95943.75;;;12.14;nan
70072;BME280;57434;42.794;23.302;2023-05-19T05:54:11;95843.97;;;11.52;nan
70072;BME280;57434;42.794;23.302;2023-05-19T05:55:14;95924.84;;;12.15;nan
70072;BME280;57434;42.794;23.302;2023-05-19T05:56:16;95948.75;;;12.25;nan
70072;BME280;57434;42.794;23.302;2023-05-19T05:57:18;95806.19;;;11.33;nan
70072;BME280;57434;42.794;23.302;2023-05-19T05:58:20;95813.19;;;11.43;nan
70072;BME280;57434;42.794;23.302;2023-05-19T05:59:22;95937.06;;;12.32;nan
70072;BME280;57434;42.794;23.302;2023-05-19T06:00:24;95956.34;;;12.45;nan
70072;BME280;57434;42.794;23.302;2023-05-19T06:01:26;95852.13;;;11.76;nan